createdAt,value
2022-10-09T00:01:35.070Z,14.81
2022-10-09T00:04:07.916Z,14.85
2022-10-09T00:06:40.958Z,14.80
2022-10-09T00:09:15.479Z,14.78
2022-10-09T00:11:48.276Z,14.75
2022-10-09T00:14:21.012Z,14.76
2022-10-09T00:16:55.198Z,14.76
2022-10-09T00:19:28.078Z,14.73
2022-10-09T00:22:00.844Z,14.74
2022-10-09T00:24:34.837Z,14.72
2022-10-09T00:27:07.582Z,14.70
2022-10-09T00:29:40.409Z,14.68
2022-10-09T00:32:13.309Z,14.66
2022-10-09T00:34:46.229Z,14.63
2022-10-09T00:37:19.201Z,14.65
2022-10-09T00:39:53.403Z,14.65
2022-10-09T00:42:26.472Z,14.63
2022-10-09T00:45:00.303Z,14.62
2022-10-09T00:47:39.575Z,14.57
2022-10-09T00:50:19.008Z,14.62
2022-10-09T00:52:55.333Z,14.56
2022-10-09T00:55:30.879Z,14.55
2022-10-09T00:58:04.070Z,14.53
2022-10-09T01:00:36.877Z,14.52
2022-10-09T01:03:09.714Z,14.50
2022-10-09T01:05:51.962Z,14.49
2022-10-09T01:08:29.204Z,14.48
2022-10-09T01:11:11.122Z,14.45
2022-10-09T01:13:47.965Z,14.44
2022-10-09T01:16:26.822Z,14.40
2022-10-09T01:19:07.223Z,14.40
2022-10-09T01:21:47.696Z,14.38
2022-10-09T01:24:31.031Z,14.37
2022-10-09T01:27:07.814Z,14.36
2022-10-09T01:29:45.856Z,14.38
2022-10-09T01:32:21.183Z,14.34
2022-10-09T01:34:55.371Z,14.28
2022-10-09T01:37:30.643Z,14.25
2022-10-09T01:40:05.018Z,14.23
2022-10-09T01:42:39.511Z,14.25
2022-10-09T01:45:13.143Z,14.22
2022-10-09T01:47:46.462Z,14.27
2022-10-09T01:50:26.832Z,14.23
2022-10-09T01:53:03.932Z,14.19
2022-10-09T01:55:43.008Z,14.20
2022-10-09T01:58:22.691Z,14.15
2022-10-09T02:01:01.556Z,14.16
2022-10-09T02:03:37.468Z,14.10
2022-10-09T02:06:25.705Z,14.15
2022-10-09T02:09:07.431Z,14.10
2022-10-09T02:11:42.968Z,14.08
2022-10-09T02:14:18.168Z,14.09
2022-10-09T02:16:57.164Z,14.05
2022-10-09T02:19:36.915Z,14.07
2022-10-09T02:22:16.032Z,14.04
2022-10-09T02:24:49.363Z,14.08
2022-10-09T02:27:22.975Z,14.02
2022-10-09T02:29:58.923Z,14.03
2022-10-09T02:32:31.784Z,14.04
2022-10-09T02:35:04.931Z,13.96
2022-10-09T02:37:37.741Z,13.96
2022-10-09T02:40:12.226Z,13.96
2022-10-09T02:42:45.425Z,13.95
2022-10-09T02:45:19.602Z,13.92
2022-10-09T02:47:52.263Z,13.92
2022-10-09T02:50:25.246Z,13.87
2022-10-09T02:52:57.978Z,13.88
2022-10-09T02:55:30.965Z,13.82
2022-10-09T02:58:03.741Z,13.81
2022-10-09T03:00:39.042Z,13.85
2022-10-09T03:03:11.773Z,13.84
2022-10-09T03:05:45.044Z,13.77
2022-10-09T03:08:17.736Z,13.78
2022-10-09T03:10:50.593Z,13.80
2022-10-09T03:13:23.308Z,13.78
2022-10-09T03:16:03.647Z,13.76
2022-10-09T03:18:37.630Z,13.73
2022-10-09T03:21:12.857Z,13.73
2022-10-09T03:23:45.977Z,13.71
2022-10-09T03:26:19.514Z,13.70
2022-10-09T03:28:53.283Z,13.66
2022-10-09T03:31:50.415Z,13.67
2022-10-09T03:34:20.991Z,13.66
2022-10-09T03:36:53.919Z,13.64
2022-10-09T03:39:27.180Z,13.59
2022-10-09T03:42:00.034Z,13.58
2022-10-09T03:44:32.684Z,13.58
2022-10-09T03:47:06.956Z,13.55
2022-10-09T03:49:39.864Z,13.51
2022-10-09T03:52:13.363Z,13.52
2022-10-09T03:54:46.079Z,13.52
2022-10-09T03:57:19.717Z,13.50
2022-10-09T03:59:52.430Z,13.48
2022-10-09T04:02:26.784Z,13.43
2022-10-09T04:04:59.520Z,13.40
2022-10-09T04:07:32.340Z,13.42
2022-10-09T04:10:06.118Z,13.39
2022-10-09T04:12:39.307Z,13.37
2022-10-09T04:15:12.165Z,13.40
2022-10-09T04:17:46.312Z,13.32
2022-10-09T04:20:20.782Z,13.37
2022-10-09T04:22:53.586Z,13.36
2022-10-09T04:25:28.468Z,13.28
2022-10-09T04:28:01.402Z,13.32
2022-10-09T04:30:34.133Z,13.28
2022-10-09T04:33:12.800Z,13.27
2022-10-09T04:35:46.691Z,13.25
2022-10-09T04:38:19.837Z,13.24
2022-10-09T04:40:59.160Z,13.21
2022-10-09T04:43:33.094Z,13.19
2022-10-09T04:46:07.271Z,13.21
2022-10-09T04:48:42.497Z,13.19
2022-10-09T04:51:16.447Z,13.20
2022-10-09T04:53:49.767Z,13.16
2022-10-09T04:56:23.524Z,13.14
2022-10-09T04:58:56.656Z,13.16
2022-10-09T05:01:32.033Z,13.11
2022-10-09T05:04:10.192Z,13.14
2022-10-09T05:06:42.838Z,13.12
2022-10-09T05:09:15.701Z,13.11
2022-10-09T05:11:48.380Z,13.06
2022-10-09T05:14:21.080Z,13.06
2022-10-09T05:17:13.057Z,13.01
2022-10-09T05:19:48.161Z,13.03
2022-10-09T05:22:20.992Z,12.98
2022-10-09T05:24:53.730Z,12.98
2022-10-09T05:27:26.460Z,12.98
2022-10-09T05:29:59.294Z,13.02
2022-10-09T05:32:32.055Z,13.00
2022-10-09T05:35:07.108Z,12.97
2022-10-09T05:37:39.877Z,13.05
2022-10-09T05:40:13.171Z,12.97
2022-10-09T05:42:46.116Z,12.99
2022-10-09T05:45:18.918Z,12.98
2022-10-09T05:47:51.592Z,12.96
2022-10-09T05:50:25.975Z,12.99
2022-10-09T05:52:58.640Z,12.95
2022-10-09T05:55:31.530Z,12.94
2022-10-09T05:58:04.588Z,12.91
2022-10-09T06:00:37.787Z,12.95
2022-10-09T06:03:10.669Z,12.93
2022-10-09T06:05:44.858Z,12.94
2022-10-09T06:08:17.725Z,12.97
2022-10-09T06:10:50.443Z,12.92
2022-10-09T06:13:23.462Z,12.92
2022-10-09T06:15:56.269Z,12.89
2022-10-09T06:18:29.191Z,12.87
2022-10-09T06:21:03.539Z,12.91
2022-10-09T06:23:37.557Z,12.87
2022-10-09T06:26:12.212Z,12.88
2022-10-09T06:28:44.959Z,12.91
2022-10-09T06:31:19.660Z,12.85
2022-10-09T06:33:53.668Z,12.86
2022-10-09T06:36:29.311Z,12.86
2022-10-09T06:39:04.257Z,12.84
2022-10-09T06:41:37.348Z,12.83
2022-10-09T06:44:28.373Z,12.82
2022-10-09T06:47:01.066Z,12.85
2022-10-09T06:49:33.706Z,12.85
2022-10-09T06:52:07.976Z,12.82
2022-10-09T06:54:40.770Z,12.82
2022-10-09T06:57:13.677Z,12.82
2022-10-09T06:59:46.667Z,12.83
2022-10-09T07:02:19.869Z,12.83
2022-10-09T07:04:52.557Z,12.81
2022-10-09T07:07:26.766Z,12.83
2022-10-09T07:09:59.631Z,12.86
2022-10-09T07:12:32.425Z,12.88
2022-10-09T07:15:07.374Z,12.92
2022-10-09T07:17:40.117Z,12.91
2022-10-09T07:20:12.798Z,12.96
2022-10-09T07:22:47.321Z,13.08
2022-10-09T07:25:20.236Z,13.06
2022-10-09T07:27:52.970Z,13.08
2022-10-09T07:30:25.766Z,13.09
2022-10-09T07:32:58.808Z,13.15
2022-10-09T07:35:31.513Z,13.21
2022-10-09T07:38:05.725Z,13.19
2022-10-09T07:40:38.499Z,13.25
2022-10-09T07:43:11.237Z,13.25
2022-10-09T07:45:44.475Z,13.31
2022-10-09T07:48:17.681Z,13.36
2022-10-09T07:50:50.379Z,13.37
2022-10-09T07:53:24.866Z,13.39
2022-10-09T07:55:57.579Z,13.44
2022-10-09T07:58:30.404Z,13.47
2022-10-09T08:01:07.177Z,13.64
2022-10-09T08:03:40.057Z,13.62
2022-10-09T08:06:12.967Z,13.63
2022-10-09T08:08:50.087Z,13.65
2022-10-09T08:11:23.847Z,13.88
2022-10-09T08:13:57.191Z,14.03
2022-10-09T08:16:30.515Z,14.20
2022-10-09T08:19:03.317Z,14.15
2022-10-09T08:21:36.073Z,14.10
2022-10-09T08:24:11.553Z,14.12
2022-10-09T08:26:45.321Z,14.27
2022-10-09T08:29:21.057Z,14.27
2022-10-09T08:31:54.374Z,14.52
2022-10-09T08:34:27.177Z,14.53
2022-10-09T08:36:59.860Z,14.55
2022-10-09T08:39:33.974Z,14.55
2022-10-09T08:42:06.904Z,14.74
2022-10-09T08:44:49.128Z,14.89
2022-10-09T08:47:25.720Z,14.87
2022-10-09T08:50:06.339Z,15.10
2022-10-09T08:52:51.075Z,15.18
2022-10-09T08:55:28.104Z,15.22
2022-10-09T08:58:05.435Z,15.42
2022-10-09T09:00:44.270Z,15.47
2022-10-09T09:03:46.569Z,15.52
2022-10-09T09:06:26.604Z,15.57
2022-10-09T09:09:06.259Z,15.62
2022-10-09T09:11:48.366Z,15.72
2022-10-09T09:14:35.893Z,15.85
2022-10-09T09:17:18.961Z,16.06
2022-10-09T09:20:05.458Z,16.17
2022-10-09T09:22:44.412Z,16.20
2022-10-09T09:25:23.427Z,16.37
2022-10-09T09:28:03.217Z,16.47
2022-10-09T09:30:42.062Z,16.55
2022-10-09T09:33:22.226Z,16.58
2022-10-09T09:36:06.270Z,16.81
2022-10-09T09:39:02.417Z,16.83
2022-10-09T09:41:31.841Z,16.91
2022-10-09T09:44:08.483Z,16.92
2022-10-09T09:46:43.026Z,16.97
2022-10-09T09:49:16.674Z,17.20
2022-10-09T09:51:50.807Z,17.28
2022-10-09T09:54:26.084Z,17.50
2022-10-09T09:57:12.903Z,17.45
2022-10-09T09:59:49.355Z,17.63
2022-10-09T10:02:23.920Z,17.73
2022-10-09T10:05:00.608Z,17.77
2022-10-09T10:07:35.547Z,17.95
2022-10-09T10:10:19.761Z,17.99
2022-10-09T10:12:57.939Z,18.19
2022-10-09T10:15:33.849Z,18.23
2022-10-09T10:18:08.207Z,18.38
2022-10-09T10:20:48.546Z,18.50
2022-10-09T10:23:32.004Z,18.54
2022-10-09T10:26:09.722Z,18.55
2022-10-09T10:28:49.315Z,18.76
2022-10-09T10:31:36.682Z,18.92
2022-10-09T10:34:17.844Z,18.96
2022-10-09T10:37:02.494Z,18.95
2022-10-09T10:39:44.991Z,19.01
2022-10-09T10:42:22.418Z,19.08
2022-10-09T10:45:03.824Z,19.23
2022-10-09T10:47:44.143Z,19.37
2022-10-09T10:50:18.079Z,19.32
2022-10-09T10:53:02.744Z,19.33
2022-10-09T10:55:46.729Z,19.50
2022-10-09T10:58:27.337Z,19.67
2022-10-09T11:01:17.100Z,19.82
2022-10-09T11:04:16.733Z,19.84
2022-10-09T11:06:59.112Z,19.89
2022-10-09T11:09:38.928Z,19.90
2022-10-09T11:12:30.055Z,19.92
2022-10-09T11:15:21.226Z,19.98
2022-10-09T11:18:03.823Z,20.13
2022-10-09T11:21:00.431Z,20.33
2022-10-09T11:23:51.016Z,20.30
2022-10-09T11:26:32.906Z,20.33
2022-10-09T11:29:10.322Z,20.34
2022-10-09T11:31:49.758Z,20.50
2022-10-09T11:34:29.186Z,20.49
2022-10-09T11:37:08.393Z,20.59
2022-10-09T11:39:42.359Z,20.56
2022-10-09T11:42:20.661Z,20.65
2022-10-09T11:45:04.070Z,20.79
2022-10-09T11:47:45.824Z,20.89
2022-10-09T11:50:37.922Z,20.80
2022-10-09T11:53:16.049Z,20.86
2022-10-09T11:55:49.170Z,21.04
2022-10-09T11:58:24.462Z,21.12
2022-10-09T12:01:10.908Z,21.25
2022-10-09T12:03:44.667Z,21.19
2022-10-09T12:06:20.084Z,21.18
2022-10-09T12:08:59.643Z,21.20
2022-10-09T12:11:34.054Z,21.28
2022-10-09T12:14:08.983Z,21.39
2022-10-09T12:16:44.768Z,21.40
2022-10-09T12:19:21.089Z,21.43
2022-10-09T12:22:01.727Z,21.47
2022-10-09T12:24:40.414Z,21.63
2022-10-09T12:27:19.403Z,21.75
2022-10-09T12:29:56.110Z,21.75
2022-10-09T12:32:34.267Z,21.69
2022-10-09T12:35:18.758Z,21.75
2022-10-09T12:37:51.604Z,21.78
2022-10-09T12:40:28.901Z,21.77
2022-10-09T12:43:09.086Z,21.64
2022-10-09T12:45:45.643Z,21.90
2022-10-09T12:48:22.378Z,21.92
2022-10-09T12:50:56.025Z,21.87
2022-10-09T12:53:29.993Z,21.98
2022-10-09T12:56:13.213Z,22.01
2022-10-09T12:58:46.193Z,22.13
2022-10-09T13:01:19.326Z,22.05
2022-10-09T13:03:56.887Z,22.07
2022-10-09T13:06:36.277Z,22.01
2022-10-09T13:09:20.596Z,22.07
2022-10-09T13:11:58.998Z,22.09
2022-10-09T13:14:37.006Z,22.24
2022-10-09T13:17:23.884Z,22.23
2022-10-09T13:19:58.470Z,22.34
2022-10-09T13:22:35.748Z,22.19
2022-10-09T13:25:10.634Z,22.12
2022-10-09T13:27:44.793Z,22.20
2022-10-09T13:30:17.820Z,22.25
2022-10-09T13:32:50.869Z,22.29
2022-10-09T13:35:23.627Z,22.33
2022-10-09T13:37:56.311Z,22.33
2022-10-09T13:40:28.909Z,22.11
2022-10-09T13:43:05.824Z,21.97
2022-10-09T13:45:38.682Z,21.92
2022-10-09T13:48:11.422Z,21.85
2022-10-09T13:50:44.130Z,21.71
2022-10-09T13:53:16.846Z,21.69
2022-10-09T13:55:49.466Z,21.73
2022-10-09T13:58:23.573Z,21.48
2022-10-09T14:00:56.258Z,21.53
2022-10-09T14:03:28.903Z,21.39
2022-10-09T14:06:03.833Z,21.36
2022-10-09T14:08:36.813Z,21.31
2022-10-09T14:11:09.696Z,20.95
2022-10-09T14:13:44.286Z,21.06
2022-10-09T14:16:17.032Z,20.96
2022-10-09T14:18:49.781Z,21.07
2022-10-09T14:21:22.528Z,20.98
2022-10-09T14:23:56.058Z,20.89
2022-10-09T14:26:29.226Z,20.80
2022-10-09T14:29:03.998Z,20.80
2022-10-09T14:31:36.711Z,20.68
2022-10-09T14:34:10.907Z,20.61
2022-10-09T14:36:43.554Z,20.54
2022-10-09T14:39:17.089Z,20.51
2022-10-09T14:41:49.977Z,20.31
2022-10-09T14:44:25.004Z,20.13
2022-10-09T14:46:58.723Z,20.22
2022-10-09T14:49:31.575Z,19.94
2022-10-09T14:52:04.209Z,20.07
2022-10-09T14:54:37.379Z,20.13
2022-10-09T14:57:10.061Z,19.91
2022-10-09T14:59:44.302Z,19.89
2022-10-09T15:02:18.166Z,19.92
2022-10-09T15:04:50.872Z,19.80
2022-10-09T15:07:24.491Z,19.64
2022-10-09T15:09:58.130Z,19.62
2022-10-09T15:12:30.867Z,19.62
2022-10-09T15:15:05.627Z,19.54
2022-10-09T15:17:38.819Z,19.44
2022-10-09T15:20:12.851Z,19.37
2022-10-09T15:22:45.766Z,19.42
2022-10-09T15:25:18.521Z,19.39
2022-10-09T15:27:54.558Z,19.24
2022-10-09T15:30:29.660Z,19.25
2022-10-09T15:33:03.520Z,19.20
2022-10-09T15:35:36.386Z,19.12
2022-10-09T15:38:15.099Z,19.07
2022-10-09T15:40:49.872Z,19.00
2022-10-09T15:43:25.334Z,19.08
2022-10-09T15:46:04.696Z,19.00
2022-10-09T15:48:37.371Z,18.84
2022-10-09T15:51:13.532Z,18.91
2022-10-09T15:53:48.286Z,18.80
2022-10-09T15:56:22.850Z,18.54
2022-10-09T15:58:57.928Z,18.35
2022-10-09T16:01:32.072Z,18.17
2022-10-09T16:04:04.763Z,18.22
2022-10-09T16:06:38.949Z,18.20
2022-10-09T16:09:11.950Z,18.15
2022-10-09T16:11:44.730Z,18.12
2022-10-09T16:14:17.389Z,18.06
2022-10-09T16:16:51.639Z,18.11
2022-10-09T16:19:24.514Z,18.14
2022-10-09T16:21:57.165Z,18.08
2022-10-09T16:24:31.686Z,18.01
2022-10-09T16:27:04.706Z,18.00
2022-10-09T16:29:37.390Z,17.90
2022-10-09T16:32:12.275Z,17.87
2022-10-09T16:34:45.010Z,17.88
2022-10-09T16:37:17.864Z,17.85
2022-10-09T16:39:50.580Z,17.78
2022-10-09T16:42:23.403Z,17.72
2022-10-09T16:44:56.360Z,17.72
2022-10-09T16:47:30.938Z,17.64
2022-10-09T16:50:04.328Z,17.63
2022-10-09T16:52:37.330Z,17.63
2022-10-09T16:55:10.115Z,17.54
2022-10-09T16:57:42.859Z,17.52
2022-10-09T17:00:19.248Z,17.52
2022-10-09T17:02:53.729Z,17.38
2022-10-09T17:05:26.822Z,17.42
2022-10-09T17:07:59.361Z,17.37
2022-10-09T17:10:33.539Z,17.34
2022-10-09T17:13:06.271Z,17.28
2022-10-09T17:15:41.444Z,17.31
2022-10-09T17:18:15.605Z,17.21
2022-10-09T17:20:48.576Z,17.22
2022-10-09T17:23:21.075Z,16.97
2022-10-09T17:25:53.774Z,17.13
2022-10-09T17:28:26.800Z,17.08
2022-10-09T17:31:03.503Z,16.80
2022-10-09T17:33:42.898Z,16.83
2022-10-09T17:36:18.152Z,16.82
2022-10-09T17:38:51.726Z,16.78
2022-10-09T17:41:27.295Z,16.79
2022-10-09T17:44:00.428Z,16.77
2022-10-09T17:46:33.820Z,16.69
2022-10-09T17:49:08.062Z,16.80
2022-10-09T17:51:41.446Z,16.82
2022-10-09T17:54:17.302Z,16.94
2022-10-09T17:56:50.531Z,16.94
2022-10-09T17:59:23.323Z,16.88
2022-10-09T18:01:56.026Z,16.88
2022-10-09T18:04:30.107Z,16.72
2022-10-09T18:07:02.894Z,16.68
2022-10-09T18:09:35.722Z,16.70
2022-10-09T18:12:09.157Z,16.66
2022-10-09T18:14:41.944Z,16.54
2022-10-09T18:17:14.616Z,16.51
2022-10-09T18:19:49.014Z,16.46
2022-10-09T18:22:21.696Z,16.45
2022-10-09T18:24:54.426Z,16.45
2022-10-09T18:27:29.939Z,16.38
2022-10-09T18:30:03.149Z,16.41
2022-10-09T18:32:35.898Z,16.42
2022-10-09T18:35:12.778Z,16.40
2022-10-09T18:37:45.601Z,16.36
2022-10-09T18:40:22.474Z,16.36
2022-10-09T18:42:58.577Z,16.33
2022-10-09T18:45:34.467Z,16.23
2022-10-09T18:48:08.400Z,16.24
2022-10-09T18:50:44.255Z,16.21
2022-10-09T18:53:17.164Z,16.19
2022-10-09T18:55:51.029Z,16.18
2022-10-09T18:58:24.112Z,16.15
2022-10-09T19:00:57.351Z,16.09
2022-10-09T19:03:31.223Z,16.11
2022-10-09T19:06:05.798Z,16.08
2022-10-09T19:08:38.847Z,16.09
2022-10-09T19:11:14.212Z,16.09
2022-10-09T19:13:46.885Z,16.05
2022-10-09T19:16:19.540Z,16.10
2022-10-09T19:18:53.194Z,16.04
2022-10-09T19:21:27.859Z,16.03
2022-10-09T19:24:03.516Z,16.00
2022-10-09T19:26:36.252Z,16.06
2022-10-09T19:29:09.370Z,16.03
2022-10-09T19:31:42.840Z,15.92
2022-10-09T19:34:16.854Z,15.90
2022-10-09T19:36:51.776Z,15.85
2022-10-09T19:39:24.752Z,15.87
2022-10-09T19:41:57.536Z,15.93
2022-10-09T19:44:32.981Z,15.87
2022-10-09T19:47:05.823Z,15.83
2022-10-09T19:49:40.648Z,15.88
2022-10-09T19:52:14.725Z,15.84
2022-10-09T19:54:47.383Z,15.83
2022-10-09T19:57:20.160Z,15.77
2022-10-09T19:59:53.118Z,15.78
2022-10-09T20:02:26.010Z,15.69
2022-10-09T20:04:58.727Z,15.73
2022-10-09T20:07:33.227Z,15.72
2022-10-09T20:10:06.686Z,15.65
2022-10-09T20:12:39.792Z,15.63
2022-10-09T20:15:12.823Z,15.62
2022-10-09T20:17:45.702Z,15.55
2022-10-09T20:20:18.548Z,15.59
2022-10-09T20:22:53.330Z,15.52
2022-10-09T20:25:26.933Z,15.49
2022-10-09T20:28:00.204Z,15.53
2022-10-09T20:30:33.104Z,15.50
2022-10-09T20:33:05.826Z,15.54
2022-10-09T20:35:42.705Z,15.51
2022-10-09T20:38:20.867Z,15.57
2022-10-09T20:41:03.130Z,15.51
2022-10-09T20:43:36.189Z,15.52
2022-10-09T20:46:09.638Z,15.49
2022-10-09T20:48:43.371Z,15.52
2022-10-09T20:51:17.073Z,15.49
2022-10-09T20:53:55.741Z,15.49
2022-10-09T20:56:31.313Z,15.45
2022-10-09T20:59:04.762Z,15.47
2022-10-09T21:01:37.956Z,15.47
2022-10-09T21:04:12.148Z,15.43
2022-10-09T21:06:45.041Z,15.44
2022-10-09T21:09:19.127Z,15.40
2022-10-09T21:11:52.219Z,15.43
2022-10-09T21:14:24.767Z,15.45
2022-10-09T21:16:57.483Z,15.28
2022-10-09T21:19:30.373Z,15.23
2022-10-09T21:22:03.145Z,15.26
2022-10-09T21:24:41.521Z,15.22
2022-10-09T21:27:14.389Z,15.22
2022-10-09T21:29:47.370Z,15.19
2022-10-09T21:32:21.396Z,15.23
2022-10-09T21:34:54.303Z,15.28
2022-10-09T21:37:26.999Z,15.24
2022-10-09T21:40:01.047Z,15.19
2022-10-09T21:42:33.789Z,15.22
2022-10-09T21:45:07.463Z,15.27
2022-10-09T21:47:40.218Z,15.31
2022-10-09T21:50:13.015Z,15.27
2022-10-09T21:52:45.725Z,15.18
2022-10-09T21:55:20.044Z,15.25
2022-10-09T21:57:53.095Z,15.24
2022-10-09T22:00:25.931Z,15.17
2022-10-09T22:02:58.703Z,15.20
2022-10-09T22:05:31.929Z,15.11
2022-10-09T22:08:04.592Z,15.05
2022-10-09T22:10:42.166Z,15.08
2022-10-09T22:13:14.903Z,15.08
2022-10-09T22:15:51.148Z,15.08
2022-10-09T22:18:24.179Z,15.07
2022-10-09T22:20:56.876Z,15.04
2022-10-09T22:23:29.665Z,15.07
2022-10-09T22:26:06.995Z,15.09
2022-10-09T22:28:39.811Z,15.07
2022-10-09T22:31:14.961Z,15.01
2022-10-09T22:33:51.614Z,15.03
2022-10-09T22:36:26.661Z,15.03
2022-10-09T22:39:01.220Z,15.02
2022-10-09T22:41:36.452Z,15.01
2022-10-09T22:44:11.318Z,15.07
2022-10-09T22:46:45.257Z,15.06
2022-10-09T22:49:18.691Z,14.98
2022-10-09T22:51:51.473Z,14.96
2022-10-09T22:54:24.100Z,14.96
2022-10-09T22:56:58.192Z,14.93
2022-10-09T22:59:30.990Z,14.93
2022-10-09T23:02:03.848Z,14.91
2022-10-09T23:04:36.548Z,14.89
2022-10-09T23:07:09.207Z,14.94
2022-10-09T23:09:41.851Z,14.89
2022-10-09T23:12:15.914Z,14.82
2022-10-09T23:14:48.560Z,14.83
2022-10-09T23:17:21.465Z,14.86
2022-10-09T23:19:54.063Z,14.81
2022-10-09T23:22:26.930Z,14.79
2022-10-09T23:24:59.514Z,14.86
2022-10-09T23:27:33.600Z,14.87
2022-10-09T23:30:07.057Z,14.77
2022-10-09T23:32:39.697Z,14.75
2022-10-09T23:35:12.996Z,14.74
2022-10-09T23:37:46.252Z,14.80
2022-10-09T23:40:19.068Z,14.73
2022-10-09T23:42:53.292Z,14.72
2022-10-09T23:45:25.939Z,14.70
2022-10-09T23:47:58.736Z,14.63
2022-10-09T23:50:31.443Z,14.69
2022-10-09T23:53:04.289Z,14.63
2022-10-09T23:55:36.979Z,14.65
2022-10-09T23:58:11.117Z,14.56
